sensor_id;sensor_type;location;lat;lon;timestamp;pressure;altitude;pressure_sealevel;temperature;humidity
52745;BME280;38637;49.984;20.426;2023-06-22T00:00:49;99502.69;;;21.86;83.76
52745;BME280;38637;49.984;20.426;2023-06-22T00:05:40;99498.44;;;21.80;84.53
52745;BME280;38637;49.984;20.426;2023-06-22T00:08:05;99506.97;;;21.75;85.02
52745;BME280;38637;49.984;20.426;2023-06-22T00:10:30;99498.34;;;21.68;85.94
52745;BME280;38637;49.984;20.426;2023-06-22T00:12:56;99485.09;;;21.65;85.49
52745;BME280;38637;49.984;20.426;2023-06-22T00:15:21;99495.09;;;21.57;86.71
52745;BME280;38637;49.984;20.426;2023-06-22T00:17:46;99484.19;;;21.52;86.90
52745;BME280;38637;49.984;20.426;2023-06-22T00:20:12;99479.59;;;21.47;87.12
52745;BME280;38637;49.984;20.426;2023-06-22T00:22:37;99478.97;;;21.42;87.51
52745;BME280;38637;49.984;20.426;2023-06-22T00:25:05;99478.50;;;21.40;87.79
52745;BME280;38637;49.984;20.426;2023-06-22T00:27:30;99471.94;;;21.36;87.67
52745;BME280;38637;49.984;20.426;2023-06-22T00:29:55;99479.97;;;21.37;87.19
52745;BME280;38637;49.984;20.426;2023-06-22T00:32:21;99481.94;;;21.37;86.85
52745;BME280;38637;49.984;20.426;2023-06-22T00:34:46;99485.97;;;21.39;86.75
52745;BME280;38637;49.984;20.426;2023-06-22T00:37:11;99490.06;;;21.42;86.64
52745;BME280;38637;49.984;20.426;2023-06-22T00:39:36;99490.06;;;21.42;86.42
52745;BME280;38637;49.984;20.426;2023-06-22T00:42:01;99491.53;;;21.39;86.62
52745;BME280;38637;49.984;20.426;2023-06-22T00:44:27;99489.09;;;21.38;86.83
52745;BME280;38637;49.984;20.426;2023-06-22T00:46:52;99484.72;;;21.37;86.39
52745;BME280;38637;49.984;20.426;2023-06-22T00:49:17;99487.63;;;21.40;86.31
52745;BME280;38637;49.984;20.426;2023-06-22T00:51:43;99486.97;;;21.43;86.02
52745;BME280;38637;49.984;20.426;2023-06-22T00:54:10;99489.09;;;21.46;86.11
52745;BME280;38637;49.984;20.426;2023-06-22T00:56:36;99484.00;;;21.48;86.01
52745;BME280;38637;49.984;20.426;2023-06-22T00:59:02;99471.09;;;21.52;85.60
52745;BME280;38637;49.984;20.426;2023-06-22T01:01:28;99475.97;;;21.55;85.71
52745;BME280;38637;49.984;20.426;2023-06-22T01:03:53;99481.69;;;21.59;85.41
52745;BME280;38637;49.984;20.426;2023-06-22T01:06:25;99485.28;;;21.60;85.07
52745;BME280;38637;49.984;20.426;2023-06-22T01:08:53;99483.31;;;21.60;85.30
52745;BME280;38637;49.984;20.426;2023-06-22T01:11:31;99480.53;;;21.60;85.14
52745;BME280;38637;49.984;20.426;2023-06-22T01:14:03;99488.56;;;21.62;85.23
52745;BME280;38637;49.984;20.426;2023-06-22T01:16:33;99479.41;;;21.61;85.27
52745;BME280;38637;49.984;20.426;2023-06-22T01:19:06;99467.94;;;21.63;84.84
52745;BME280;38637;49.984;20.426;2023-06-22T01:21:34;99452.06;;;21.63;84.80
52745;BME280;38637;49.984;20.426;2023-06-22T01:24:09;99464.84;;;21.64;84.93
52745;BME280;38637;49.984;20.426;2023-06-22T01:26:43;99467.94;;;21.63;84.80
52745;BME280;38637;49.984;20.426;2023-06-22T01:29:17;99473.84;;;21.61;84.65
52745;BME280;38637;49.984;20.426;2023-06-22T01:31:44;99463.53;;;21.62;84.51
52745;BME280;38637;49.984;20.426;2023-06-22T01:34:10;99467.63;;;21.64;84.23
52745;BME280;38637;49.984;20.426;2023-06-22T01:36:36;99471.22;;;21.65;84.38
52745;BME280;38637;49.984;20.426;2023-06-22T01:39:02;99470.22;;;21.61;84.55
52745;BME280;38637;49.984;20.426;2023-06-22T01:41:29;99475.63;;;21.57;84.91
52745;BME280;38637;49.984;20.426;2023-06-22T01:43:56;99473.88;;;21.52;85.08
52745;BME280;38637;49.984;20.426;2023-06-22T01:46:21;99480.25;;;21.53;84.95
52745;BME280;38637;49.984;20.426;2023-06-22T01:48:47;99474.34;;;21.54;84.61
52745;BME280;38637;49.984;20.426;2023-06-22T01:51:13;99474.69;;;21.53;84.61
52745;BME280;38637;49.984;20.426;2023-06-22T01:53:39;99476.78;;;21.56;84.61
52745;BME280;38637;49.984;20.426;2023-06-22T01:56:04;99471.72;;;21.58;84.38
52745;BME280;38637;49.984;20.426;2023-06-22T01:58:30;99478.56;;;21.61;84.13
52745;BME280;38637;49.984;20.426;2023-06-22T02:01:00;99468.28;;;21.61;83.83
52745;BME280;38637;49.984;20.426;2023-06-22T02:03:34;99478.56;;;21.61;83.84
52745;BME280;38637;49.984;20.426;2023-06-22T02:06:05;99475.31;;;21.59;84.25
52745;BME280;38637;49.984;20.426;2023-06-22T02:08:33;99473.66;;;21.57;84.49
52745;BME280;38637;49.984;20.426;2023-06-22T02:11:00;99482.34;;;21.56;84.10
52745;BME280;38637;49.984;20.426;2023-06-22T02:13:27;99487.75;;;21.52;84.34
52745;BME280;38637;49.984;20.426;2023-06-22T02:15:52;99505.91;;;21.50;84.69
52745;BME280;38637;49.984;20.426;2023-06-22T02:18:18;99497.44;;;21.46;84.64
52745;BME280;38637;49.984;20.426;2023-06-22T02:20:43;99505.25;;;21.44;84.63
52745;BME280;38637;49.984;20.426;2023-06-22T02:23:08;99517.03;;;21.41;84.85
52745;BME280;38637;49.984;20.426;2023-06-22T02:25:34;99512.63;;;21.40;84.72
52745;BME280;38637;49.984;20.426;2023-06-22T02:27:59;99505.13;;;21.41;84.79
52745;BME280;38637;49.984;20.426;2023-06-22T02:30:25;99499.22;;;21.33;85.38
52745;BME280;38637;49.984;20.426;2023-06-22T02:32:50;99501.16;;;21.33;84.99
52745;BME280;38637;49.984;20.426;2023-06-22T02:35:23;99507.56;;;21.33;85.18
52745;BME280;38637;49.984;20.426;2023-06-22T02:37:48;99511.16;;;21.34;85.37
52745;BME280;38637;49.984;20.426;2023-06-22T02:40:16;99513.94;;;21.34;85.35
52745;BME280;38637;49.984;20.426;2023-06-22T02:42:42;99512.94;;;21.39;84.71
52745;BME280;38637;49.984;20.426;2023-06-22T02:45:07;99517.03;;;21.41;85.08
52745;BME280;38637;49.984;20.426;2023-06-22T02:47:32;99518.84;;;21.46;84.73
52745;BME280;38637;49.984;20.426;2023-06-22T02:49:57;99517.03;;;21.50;84.60
52745;BME280;38637;49.984;20.426;2023-06-22T02:52:23;99514.41;;;21.53;84.43
52745;BME280;38637;49.984;20.426;2023-06-22T02:54:48;99514.53;;;21.57;84.16
52745;BME280;38637;49.984;20.426;2023-06-22T02:57:13;99508.66;;;21.59;84.32
52745;BME280;38637;49.984;20.426;2023-06-22T02:59:42;99506.34;;;21.61;84.13
52745;BME280;38637;49.984;20.426;2023-06-22T03:02:07;99502.91;;;21.64;83.91
52745;BME280;38637;49.984;20.426;2023-06-22T03:04:33;99510.59;;;21.67;83.60
52745;BME280;38637;49.984;20.426;2023-06-22T03:06:58;99518.09;;;21.66;83.91
52745;BME280;38637;49.984;20.426;2023-06-22T03:09:26;99512.22;;;21.68;83.73
52745;BME280;38637;49.984;20.426;2023-06-22T03:11:52;99527.25;;;21.67;83.89
52745;BME280;38637;49.984;20.426;2023-06-22T03:14:17;99527.25;;;21.67;83.68
52745;BME280;38637;49.984;20.426;2023-06-22T03:16:43;99526.44;;;21.66;83.90
52745;BME280;38637;49.984;20.426;2023-06-22T03:19:08;99531.19;;;21.66;83.67
52745;BME280;38637;49.984;20.426;2023-06-22T03:21:33;99534.47;;;21.68;83.74
52745;BME280;38637;49.984;20.426;2023-06-22T03:23:58;99532.16;;;21.70;83.76
52745;BME280;38637;49.984;20.426;2023-06-22T03:26:24;99531.34;;;21.69;83.53
52745;BME280;38637;49.984;20.426;2023-06-22T03:28:51;99529.56;;;21.65;83.85
52745;BME280;38637;49.984;20.426;2023-06-22T03:31:17;99534.78;;;21.66;83.75
52745;BME280;38637;49.984;20.426;2023-06-22T03:33:46;99545.59;;;21.68;83.89
52745;BME280;38637;49.984;20.426;2023-06-22T03:36:11;99543.63;;;21.68;83.65
52745;BME280;38637;49.984;20.426;2023-06-22T03:38:36;99496.63;;;21.37;83.98
52745;BME280;38637;49.984;20.426;2023-06-22T03:41:02;99554.09;;;21.63;84.15
52745;BME280;38637;49.984;20.426;2023-06-22T03:43:27;99550.00;;;21.60;84.34
52745;BME280;38637;49.984;20.426;2023-06-22T03:45:52;99551.47;;;21.57;84.61
52745;BME280;38637;49.984;20.426;2023-06-22T03:48:17;99547.22;;;21.60;84.13
52745;BME280;38637;49.984;20.426;2023-06-22T03:50:43;99558.03;;;21.62;84.06
52745;BME280;38637;49.984;20.426;2023-06-22T03:53:09;99554.59;;;21.65;84.27
52745;BME280;38637;49.984;20.426;2023-06-22T03:55:34;99552.28;;;21.67;83.95
52745;BME280;38637;49.984;20.426;2023-06-22T03:58:00;99559.94;;;21.70;83.86
52745;BME280;38637;49.984;20.426;2023-06-22T04:00:30;99564.53;;;21.74;83.54
52745;BME280;38637;49.984;20.426;2023-06-22T04:02:55;99564.19;;;21.76;83.66
52745;BME280;38637;49.984;20.426;2023-06-22T04:05:21;99569.44;;;21.77;83.53
52745;BME280;38637;49.984;20.426;2023-06-22T04:07:46;99564.69;;;21.78;83.65
52745;BME280;38637;49.984;20.426;2023-06-22T04:10:11;99568.13;;;21.75;83.41
52745;BME280;38637;49.984;20.426;2023-06-22T04:12:36;99569.75;;;21.76;83.31
52745;BME280;38637;49.984;20.426;2023-06-22T04:15:02;99567.81;;;21.76;82.96
52745;BME280;38637;49.984;20.426;2023-06-22T04:17:27;99565.97;;;21.80;83.03
52745;BME280;38637;49.984;20.426;2023-06-22T04:19:52;99576.09;;;21.85;83.03
52745;BME280;38637;49.984;20.426;2023-06-22T04:22:17;99573.13;;;21.90;82.38
52745;BME280;38637;49.984;20.426;2023-06-22T04:24:43;99567.06;;;21.97;82.35
52745;BME280;38637;49.984;20.426;2023-06-22T04:27:09;99580.31;;;22.00;81.81
52745;BME280;38637;49.984;20.426;2023-06-22T04:29:34;99585.06;;;21.99;81.73
52745;BME280;38637;49.984;20.426;2023-06-22T04:31:59;99588.66;;;22.00;81.39
52745;BME280;38637;49.984;20.426;2023-06-22T04:34:28;99592.06;;;22.06;81.19
52745;BME280;38637;49.984;20.426;2023-06-22T04:36:53;99594.81;;;22.23;80.68
52745;BME280;38637;49.984;20.426;2023-06-22T04:39:18;99590.59;;;22.46;79.85
52745;BME280;38637;49.984;20.426;2023-06-22T04:41:44;99588.47;;;22.73;78.49
52745;BME280;38637;49.984;20.426;2023-06-22T04:44:13;99594.72;;;23.00;77.09
52745;BME280;38637;49.984;20.426;2023-06-22T04:46:39;99600.63;;;23.19;75.93
52745;BME280;38637;49.984;20.426;2023-06-22T04:49:05;99600.00;;;23.34;74.96
52745;BME280;38637;49.984;20.426;2023-06-22T04:51:31;99605.53;;;23.55;74.22
52745;BME280;38637;49.984;20.426;2023-06-22T04:53:57;99615.28;;;23.70;73.49
52745;BME280;38637;49.984;20.426;2023-06-22T04:56:26;99601.28;;;23.91;72.61
52745;BME280;38637;49.984;20.426;2023-06-22T04:58:53;99601.06;;;24.08;72.28
52745;BME280;38637;49.984;20.426;2023-06-22T05:01:20;99599.34;;;24.28;70.53
52745;BME280;38637;49.984;20.426;2023-06-22T05:03:47;99603.31;;;24.40;69.92
52745;BME280;38637;49.984;20.426;2023-06-22T05:06:12;99602.16;;;24.53;69.85
52745;BME280;38637;49.984;20.426;2023-06-22T05:08:39;99614.94;;;24.66;69.06
52745;BME280;38637;49.984;20.426;2023-06-22T05:11:04;99607.88;;;24.57;69.72
52745;BME280;38637;49.984;20.426;2023-06-22T05:13:30;99605.66;;;24.62;69.30
52745;BME280;38637;49.984;20.426;2023-06-22T05:15:55;99611.81;;;24.68;69.38
52745;BME280;38637;49.984;20.426;2023-06-22T05:18:26;99613.63;;;24.88;68.38
52745;BME280;38637;49.984;20.426;2023-06-22T05:20:51;99612.75;;;24.72;68.76
52745;BME280;38637;49.984;20.426;2023-06-22T05:23:17;99614.94;;;24.79;68.93
52745;BME280;38637;49.984;20.426;2023-06-22T05:25:42;99621.22;;;24.88;68.10
52745;BME280;38637;49.984;20.426;2023-06-22T05:28:07;99611.81;;;24.80;68.31
52745;BME280;38637;49.984;20.426;2023-06-22T05:30:36;99609.13;;;24.84;68.99
52745;BME280;38637;49.984;20.426;2023-06-22T05:33:01;99611.91;;;24.96;68.87
52745;BME280;38637;49.984;20.426;2023-06-22T05:35:26;99604.66;;;25.07;68.66
52745;BME280;38637;49.984;20.426;2023-06-22T05:37:51;99601.72;;;25.16;67.94
52745;BME280;38637;49.984;20.426;2023-06-22T05:40:17;99602.53;;;25.29;67.72
52745;BME280;38637;49.984;20.426;2023-06-22T05:42:42;99603.72;;;25.43;67.41
52745;BME280;38637;49.984;20.426;2023-06-22T05:45:07;99608.03;;;25.53;67.43
52745;BME280;38637;49.984;20.426;2023-06-22T05:47:33;99614.16;;;25.59;66.98
52745;BME280;38637;49.984;20.426;2023-06-22T05:49:58;99608.22;;;25.60;67.16
52745;BME280;38637;49.984;20.426;2023-06-22T05:52:23;99620.06;;;25.70;66.67
52745;BME280;38637;49.984;20.426;2023-06-22T05:54:48;99619.25;;;25.69;66.90
52745;BME280;38637;49.984;20.426;2023-06-22T05:57:13;99617.88;;;25.63;67.02
52745;BME280;38637;49.984;20.426;2023-06-22T05:59:39;99618.31;;;25.65;67.78
52745;BME280;38637;49.984;20.426;2023-06-22T06:02:04;99621.44;;;25.76;67.48
52745;BME280;38637;49.984;20.426;2023-06-22T06:04:29;99624.28;;;25.92;67.27
52745;BME280;38637;49.984;20.426;2023-06-22T06:06:55;99616.19;;;26.02;66.79
52745;BME280;38637;49.984;20.426;2023-06-22T06:09:20;99619.97;;;26.10;66.73
52745;BME280;38637;49.984;20.426;2023-06-22T06:11:45;99626.53;;;26.02;66.62
52745;BME280;38637;49.984;20.426;2023-06-22T06:14:11;99623.75;;;26.02;67.18
52745;BME280;38637;49.984;20.426;2023-06-22T06:16:36;99624.47;;;25.99;66.56
52745;BME280;38637;49.984;20.426;2023-06-22T06:19:01;99627.09;;;25.92;67.35
52745;BME280;38637;49.984;20.426;2023-06-22T06:21:26;99628.81;;;25.96;67.85
52745;BME280;38637;49.984;20.426;2023-06-22T06:23:51;99629.88;;;25.92;67.23
52745;BME280;38637;49.984;20.426;2023-06-22T06:26:18;99628.81;;;25.96;67.24
52745;BME280;38637;49.984;20.426;2023-06-22T06:28:49;99631.88;;;26.07;67.26
52745;BME280;38637;49.984;20.426;2023-06-22T06:31:15;99626.66;;;26.05;66.91
52745;BME280;38637;49.984;20.426;2023-06-22T06:33:42;99638.38;;;26.11;67.59
52745;BME280;38637;49.984;20.426;2023-06-22T06:36:07;99639.16;;;26.24;66.80
52745;BME280;38637;49.984;20.426;2023-06-22T06:38:33;99637.53;;;26.39;66.70
52745;BME280;38637;49.984;20.426;2023-06-22T06:40:58;99633.63;;;26.43;66.24
52745;BME280;38637;49.984;20.426;2023-06-22T06:43:24;99626.66;;;26.37;66.35
52745;BME280;38637;49.984;20.426;2023-06-22T06:45:49;99636.16;;;26.32;66.72
52745;BME280;38637;49.984;20.426;2023-06-22T06:48:15;99637.78;;;26.33;66.41
52745;BME280;38637;49.984;20.426;2023-06-22T06:50:40;99636.88;;;26.45;67.08
52745;BME280;38637;49.984;20.426;2023-06-22T06:53:05;99638.97;;;26.48;66.71
52745;BME280;38637;49.984;20.426;2023-06-22T06:55:31;99642.97;;;26.63;66.47
52745;BME280;38637;49.984;20.426;2023-06-22T06:57:57;99644.41;;;26.73;66.14
52745;BME280;38637;49.984;20.426;2023-06-22T07:00:24;99639.84;;;26.84;66.04
52745;BME280;38637;49.984;20.426;2023-06-22T07:02:50;99645.97;;;26.90;66.42
52745;BME280;38637;49.984;20.426;2023-06-22T07:05:15;99640.81;;;26.92;65.81
52745;BME280;38637;49.984;20.426;2023-06-22T07:07:40;99633.75;;;26.98;65.41
52745;BME280;38637;49.984;20.426;2023-06-22T07:10:06;99631.75;;;26.98;65.43
52745;BME280;38637;49.984;20.426;2023-06-22T07:12:32;99644.69;;;27.03;65.32
52745;BME280;38637;49.984;20.426;2023-06-22T07:15:01;99638.63;;;27.17;65.29
52745;BME280;38637;49.984;20.426;2023-06-22T07:17:27;99636.19;;;27.35;65.26
52745;BME280;38637;49.984;20.426;2023-06-22T07:19:52;99637.28;;;27.30;63.99
52745;BME280;38637;49.984;20.426;2023-06-22T07:22:17;99636.47;;;27.30;64.57
52745;BME280;38637;49.984;20.426;2023-06-22T07:24:42;99639.81;;;27.35;65.43
52745;BME280;38637;49.984;20.426;2023-06-22T07:27:08;99637.88;;;27.20;64.72
52745;BME280;38637;49.984;20.426;2023-06-22T07:29:36;99640.09;;;27.30;65.34
52745;BME280;38637;49.984;20.426;2023-06-22T07:32:01;99637.41;;;27.34;65.08
52745;BME280;38637;49.984;20.426;2023-06-22T07:34:29;99652.75;;;27.40;64.61
52745;BME280;38637;49.984;20.426;2023-06-22T07:36:54;99650.47;;;27.65;63.43
52745;BME280;38637;49.984;20.426;2023-06-22T07:39:20;99641.53;;;27.79;64.09
52745;BME280;38637;49.984;20.426;2023-06-22T07:41:50;99639.38;;;27.91;63.70
52745;BME280;38637;49.984;20.426;2023-06-22T07:44:15;99634.81;;;27.83;63.45
52745;BME280;38637;49.984;20.426;2023-06-22T07:46:41;99627.63;;;27.66;63.82
52745;BME280;38637;49.984;20.426;2023-06-22T07:49:06;99624.59;;;27.75;63.89
52745;BME280;38637;49.984;20.426;2023-06-22T07:51:33;99624.47;;;27.87;63.88
52745;BME280;38637;49.984;20.426;2023-06-22T07:53:58;99627.97;;;28.04;63.71
52745;BME280;38637;49.984;20.426;2023-06-22T07:56:23;99628.28;;;27.99;62.34
52745;BME280;38637;49.984;20.426;2023-06-22T07:58:48;99624.63;;;28.17;61.75
52745;BME280;38637;49.984;20.426;2023-06-22T08:01:14;99627.88;;;28.43;61.23
52745;BME280;38637;49.984;20.426;2023-06-22T08:03:39;99623.03;;;28.66;60.95
52745;BME280;38637;49.984;20.426;2023-06-22T08:06:05;99618.94;;;28.60;60.29
52745;BME280;38637;49.984;20.426;2023-06-22T08:08:31;99623.56;;;28.49;61.09
52745;BME280;38637;49.984;20.426;2023-06-22T08:10:56;99629.50;;;28.44;60.48
52745;BME280;38637;49.984;20.426;2023-06-22T08:13:21;99626.63;;;28.63;60.91
52745;BME280;38637;49.984;20.426;2023-06-22T08:15:46;99623.03;;;28.66;60.69
52745;BME280;38637;49.984;20.426;2023-06-22T08:18:12;99617.94;;;28.49;60.85
52745;BME280;38637;49.984;20.426;2023-06-22T08:20:37;99626.47;;;28.33;61.65
52745;BME280;38637;49.984;20.426;2023-06-22T08:23:02;99590.25;;;28.01;62.64
52745;BME280;38637;49.984;20.426;2023-06-22T08:25:30;99626.56;;;28.13;63.06
52745;BME280;38637;49.984;20.426;2023-06-22T08:27:55;99638.47;;;28.30;62.28
52745;BME280;38637;49.984;20.426;2023-06-22T08:30:21;99646.44;;;28.47;61.32
52745;BME280;38637;49.984;20.426;2023-06-22T08:32:46;99635.47;;;28.65;61.68
52745;BME280;38637;49.984;20.426;2023-06-22T08:35:11;99640.47;;;28.75;60.32
52745;BME280;38637;49.984;20.426;2023-06-22T08:37:36;99640.28;;;28.91;59.26
52745;BME280;38637;49.984;20.426;2023-06-22T08:40:04;99639.81;;;29.12;58.23
52745;BME280;38637;49.984;20.426;2023-06-22T08:42:34;99648.06;;;29.28;57.95
52745;BME280;38637;49.984;20.426;2023-06-22T08:44:59;99638.72;;;29.50;57.78
52745;BME280;38637;49.984;20.426;2023-06-22T08:47:25;99635.78;;;29.70;57.74
52745;BME280;38637;49.984;20.426;2023-06-22T08:49:50;99637.56;;;29.85;57.94
52745;BME280;38637;49.984;20.426;2023-06-22T08:52:16;99626.81;;;29.98;57.31
52745;BME280;38637;49.984;20.426;2023-06-22T08:54:42;99631.53;;;29.87;57.35
52745;BME280;38637;49.984;20.426;2023-06-22T08:57:07;99628.09;;;30.04;57.44
52745;BME280;38637;49.984;20.426;2023-06-22T08:59:32;99637.94;;;29.84;56.80
52745;BME280;38637;49.984;20.426;2023-06-22T09:01:57;99637.03;;;29.72;57.57
52745;BME280;38637;49.984;20.426;2023-06-22T09:04:23;99637.09;;;29.49;57.99
52745;BME280;38637;49.984;20.426;2023-06-22T09:06:48;99633.44;;;29.45;58.36
52745;BME280;38637;49.984;20.426;2023-06-22T09:09:15;99630.19;;;29.43;58.94
52745;BME280;38637;49.984;20.426;2023-06-22T09:11:40;99632.56;;;29.41;59.07
52745;BME280;38637;49.984;20.426;2023-06-22T09:14:06;99638.00;;;29.57;58.47
52745;BME280;38637;49.984;20.426;2023-06-22T09:16:31;99644.31;;;29.81;57.44
52745;BME280;38637;49.984;20.426;2023-06-22T09:18:56;99632.06;;;29.99;56.82
52745;BME280;38637;49.984;20.426;2023-06-22T09:21:22;99639.50;;;30.18;56.79
52745;BME280;38637;49.984;20.426;2023-06-22T09:23:48;99633.00;;;30.14;55.86
52745;BME280;38637;49.984;20.426;2023-06-22T09:26:16;99638.66;;;30.14;53.95
52745;BME280;38637;49.984;20.426;2023-06-22T09:28:41;99639.16;;;30.23;53.61
52745;BME280;38637;49.984;20.426;2023-06-22T09:31:06;99635.50;;;30.19;54.29
52745;BME280;38637;49.984;20.426;2023-06-22T09:33:32;99642.00;;;30.27;54.59
52745;BME280;38637;49.984;20.426;2023-06-22T09:35:57;99636.97;;;30.06;55.30
52745;BME280;38637;49.984;20.426;2023-06-22T09:38:22;99631.41;;;29.76;56.57
52745;BME280;38637;49.984;20.426;2023-06-22T09:40:47;99635.19;;;29.57;57.31
52745;BME280;38637;49.984;20.426;2023-06-22T09:43:13;99630.59;;;29.42;58.13
52745;BME280;38637;49.984;20.426;2023-06-22T09:45:38;99631.84;;;28.91;60.01
52745;BME280;38637;49.984;20.426;2023-06-22T09:48:03;99640.81;;;28.74;59.05
52745;BME280;38637;49.984;20.426;2023-06-22T09:50:28;99643.88;;;28.65;59.75
52745;BME280;38637;49.984;20.426;2023-06-22T09:52:54;99644.59;;;28.58;59.33
52745;BME280;38637;49.984;20.426;2023-06-22T09:55:22;99641.41;;;28.60;60.45
52745;BME280;38637;49.984;20.426;2023-06-22T09:57:48;99641.03;;;28.61;61.35
52745;BME280;38637;49.984;20.426;2023-06-22T10:00:13;99641.63;;;28.74;60.79
52745;BME280;38637;49.984;20.426;2023-06-22T10:02:40;99645.16;;;28.94;59.86
52745;BME280;38637;49.984;20.426;2023-06-22T10:05:06;99638.09;;;29.34;57.60
52745;BME280;38637;49.984;20.426;2023-06-22T10:07:32;99634.06;;;29.62;56.47
52745;BME280;38637;49.984;20.426;2023-06-22T10:09:57;99622.03;;;29.65;55.30
52745;BME280;38637;49.984;20.426;2023-06-22T10:12:23;99620.22;;;29.49;57.38
52745;BME280;38637;49.984;20.426;2023-06-22T10:14:48;99641.44;;;29.13;57.17
52745;BME280;38637;49.984;20.426;2023-06-22T10:17:13;99643.78;;;28.58;57.16
52745;BME280;38637;49.984;20.426;2023-06-22T10:19:38;99640.59;;;28.36;56.90
52745;BME280;38637;49.984;20.426;2023-06-22T10:22:04;99640.66;;;28.17;58.73
52745;BME280;38637;49.984;20.426;2023-06-22T10:24:30;99632.34;;;28.24;58.98
52745;BME280;38637;49.984;20.426;2023-06-22T10:26:55;99631.69;;;28.54;58.94
52745;BME280;38637;49.984;20.426;2023-06-22T10:29:20;99627.47;;;28.67;58.43
52745;BME280;38637;49.984;20.426;2023-06-22T10:31:45;99630.38;;;28.74;57.78
52745;BME280;38637;49.984;20.426;2023-06-22T10:34:11;99628.22;;;28.64;58.11
52745;BME280;38637;49.984;20.426;2023-06-22T10:36:36;99632.22;;;28.63;57.05
52745;BME280;38637;49.984;20.426;2023-06-22T10:39:01;99620.81;;;28.52;56.56
52745;BME280;38637;49.984;20.426;2023-06-22T10:41:27;99629.28;;;28.33;56.88
52745;BME280;38637;49.984;20.426;2023-06-22T10:43:55;99622.91;;;28.13;54.85
52745;BME280;38637;49.984;20.426;2023-06-22T10:46:20;99617.44;;;28.20;56.82
52745;BME280;38637;49.984;20.426;2023-06-22T10:48:45;99618.50;;;28.35;56.33
52745;BME280;38637;49.984;20.426;2023-06-22T10:51:10;99612.06;;;28.57;56.49
52745;BME280;38637;49.984;20.426;2023-06-22T10:53:35;99615.47;;;28.70;55.45
52745;BME280;38637;49.984;20.426;2023-06-22T10:56:01;99615.78;;;28.92;55.51
52745;BME280;38637;49.984;20.426;2023-06-22T10:58:26;99611.25;;;29.10;54.44
52745;BME280;38637;49.984;20.426;2023-06-22T11:00:51;99606.41;;;29.07;53.03
52745;BME280;38637;49.984;20.426;2023-06-22T11:03:16;99610.84;;;29.08;53.10
52745;BME280;38637;49.984;20.426;2023-06-22T11:05:42;99603.63;;;29.11;54.16
52745;BME280;38637;49.984;20.426;2023-06-22T11:08:07;99617.03;;;28.94;55.54
52745;BME280;38637;49.984;20.426;2023-06-22T11:10:32;99614.44;;;28.82;54.87
52745;BME280;38637;49.984;20.426;2023-06-22T11:12:57;99613.06;;;28.69;55.19
52745;BME280;38637;49.984;20.426;2023-06-22T11:15:23;99605.09;;;28.48;55.02
52745;BME280;38637;49.984;20.426;2023-06-22T11:17:48;99593.97;;;28.32;55.88
52745;BME280;38637;49.984;20.426;2023-06-22T11:20:14;99588.09;;;28.40;56.86
52745;BME280;38637;49.984;20.426;2023-06-22T11:22:39;99591.91;;;28.52;56.12
52745;BME280;38637;49.984;20.426;2023-06-22T11:25:05;99599.47;;;28.48;54.64
52745;BME280;38637;49.984;20.426;2023-06-22T11:27:30;99592.34;;;28.54;52.66
52745;BME280;38637;49.984;20.426;2023-06-22T11:29:55;99583.69;;;28.66;52.53
52745;BME280;38637;49.984;20.426;2023-06-22T11:32:21;99582.78;;;28.85;53.67
52745;BME280;38637;49.984;20.426;2023-06-22T11:34:46;99577.72;;;28.98;52.15
52745;BME280;38637;49.984;20.426;2023-06-22T11:37:11;99576.16;;;29.00;53.57
52745;BME280;38637;49.984;20.426;2023-06-22T11:39:36;99571.28;;;28.97;53.92
52745;BME280;38637;49.984;20.426;2023-06-22T11:42:02;99574.28;;;28.81;54.31
52745;BME280;38637;49.984;20.426;2023-06-22T11:44:27;99563.81;;;28.78;53.95
52745;BME280;38637;49.984;20.426;2023-06-22T11:46:52;99568.91;;;28.99;52.88
52745;BME280;38637;49.984;20.426;2023-06-22T11:49:17;99572.38;;;29.16;51.84
52745;BME280;38637;49.984;20.426;2023-06-22T11:51:42;99571.59;;;29.19;53.34
52745;BME280;38637;49.984;20.426;2023-06-22T11:54:08;99569.19;;;29.17;51.46
52745;BME280;38637;49.984;20.426;2023-06-22T11:56:33;99560.25;;;29.08;51.27
52745;BME280;38637;49.984;20.426;2023-06-22T11:58:58;99560.69;;;29.14;52.62
52745;BME280;38637;49.984;20.426;2023-06-22T12:01:23;99558.75;;;29.18;52.43
52745;BME280;38637;49.984;20.426;2023-06-22T12:03:49;99559.25;;;29.27;52.99
52745;BME280;38637;49.984;20.426;2023-06-22T12:06:14;99566.16;;;29.33;51.21
52745;BME280;38637;49.984;20.426;2023-06-22T12:08:39;99552.97;;;29.41;50.54
52745;BME280;38637;49.984;20.426;2023-06-22T12:11:04;99550.25;;;29.48;51.33
52745;BME280;38637;49.984;20.426;2023-06-22T12:13:29;99556.03;;;29.28;50.52
52745;BME280;38637;49.984;20.426;2023-06-22T12:15:55;99549.63;;;29.28;51.26
52745;BME280;38637;49.984;20.426;2023-06-22T12:18:20;99546.00;;;29.27;51.71
52745;BME280;38637;49.984;20.426;2023-06-22T12:20:48;99539.69;;;29.38;51.46
52745;BME280;38637;49.984;20.426;2023-06-22T12:23:14;99551.09;;;29.52;50.74
52745;BME280;38637;49.984;20.426;2023-06-22T12:25:39;99551.03;;;29.45;50.68
52745;BME280;38637;49.984;20.426;2023-06-22T12:28:04;99547.06;;;29.49;49.47
52745;BME280;38637;49.984;20.426;2023-06-22T12:30:30;99536.09;;;29.41;49.31
52745;BME280;38637;49.984;20.426;2023-06-22T12:32:55;99543.78;;;29.44;49.15
52745;BME280;38637;49.984;20.426;2023-06-22T12:35:20;99508.97;;;29.22;51.38
52745;BME280;38637;49.984;20.426;2023-06-22T12:37:47;99549.88;;;29.49;50.54
52745;BME280;38637;49.984;20.426;2023-06-22T12:40:13;99548.81;;;29.61;49.30
52745;BME280;38637;49.984;20.426;2023-06-22T12:42:38;99545.44;;;29.86;48.59
52745;BME280;38637;49.984;20.426;2023-06-22T12:45:03;99545.53;;;29.96;48.76